< < Back
Terminal Aerodrome Forecast


Current Version              Previous Versions:   1  2  3  4  5  6  7  8  9  

Terminal Aerodrome Forecast

219
FTUS42 KJAX 010500
TAFSSI
TAF
KSSI 010525Z 0106/0206 13006KT P6SM FEW025 SCT250
     FM011800 11010KT P6SM VCTS SCT030CB BKN250
     FM020000 12005KT P6SM SCT250=

Latest METAR

120
SAUS70 KWBC 010800 RRJ
MTRSSI
METAR KSSI 010753Z AUTO 14008KT 10SM FEW021 SCT070 BKN090 28/24 A2995
RMK AO2 SLP140 T02830239


USA.gov is the U.S. government's official web portal to all federal, state and local government web resources and services.